Rogiet, United Kingdom
Current Conditions -  °F | °C
As of 8:20 AM on Sunday 21 Dec 2014 (Local Time) from EGGD Reporting Station
Broken Clouds Broken Clouds  
Wind Chill:   Ceiling: 1000
Heat Index:   Visibility: 6mi
Dew Point:   Wind: 18mph
Humidity: 93%   Direction: 240°WSW
Pressure: 30.33"   Gusts: NA
Location:  51.59°N, 2.78°W
Report Text: EGGD 210820Z 24016KT 9999 FEW002 SCT008 BKN010 07/06 Q1027
Loading
Personal Weather Stations






























Interactive Weather Map New forecast layout! Learn more

10-Day Weather Forecast

Advertisements
Track Severe Weather on mobile